sensor_id;sensor_type;location;lat;lon;timestamp;P1;durP1;ratioP1;P2;durP2;ratioP2
7001;SDS011;3541;53.230;10.518;2022-11-20T00:02:41;7.33;;;5.07;;
7001;SDS011;3541;53.230;10.518;2022-11-20T00:05:08;6.60;;;5.13;;
7001;SDS011;3541;53.230;10.518;2022-11-20T00:07:34;6.90;;;4.50;;
7001;SDS011;3541;53.230;10.518;2022-11-20T00:10:02;9.13;;;6.07;;
7001;SDS011;3541;53.230;10.518;2022-11-20T00:12:31;5.33;;;4.13;;
7001;SDS011;3541;53.230;10.518;2022-11-20T00:14:57;6.60;;;4.60;;
7001;SDS011;3541;53.230;10.518;2022-11-20T00:17:24;6.50;;;4.83;;
7001;SDS011;3541;53.230;10.518;2022-11-20T00:19:50;6.97;;;5.50;;
7001;SDS011;3541;53.230;10.518;2022-11-20T00:22:17;9.50;;;5.57;;
7001;SDS011;3541;53.230;10.518;2022-11-20T00:24:43;8.87;;;5.50;;
7001;SDS011;3541;53.230;10.518;2022-11-20T00:27:11;6.93;;;5.47;;
7001;SDS011;3541;53.230;10.518;2022-11-20T00:29:38;6.90;;;5.17;;
7001;SDS011;3541;53.230;10.518;2022-11-20T00:32:04;5.33;;;4.83;;
7001;SDS011;3541;53.230;10.518;2022-11-20T00:34:31;7.03;;;5.83;;
7001;SDS011;3541;53.230;10.518;2022-11-20T00:36:58;7.73;;;5.20;;
7001;SDS011;3541;53.230;10.518;2022-11-20T00:39:24;7.90;;;5.50;;
7001;SDS011;3541;53.230;10.518;2022-11-20T00:41:51;7.97;;;5.30;;
7001;SDS011;3541;53.230;10.518;2022-11-20T00:44:19;8.20;;;5.60;;
7001;SDS011;3541;53.230;10.518;2022-11-20T00:46:45;9.47;;;5.60;;
7001;SDS011;3541;53.230;10.518;2022-11-20T00:49:12;8.13;;;5.37;;
7001;SDS011;3541;53.230;10.518;2022-11-20T00:51:38;7.43;;;5.40;;
7001;SDS011;3541;53.230;10.518;2022-11-20T00:54:05;6.93;;;5.00;;
7001;SDS011;3541;53.230;10.518;2022-11-20T00:56:31;6.90;;;5.37;;
7001;SDS011;3541;53.230;10.518;2022-11-20T00:58:59;7.10;;;5.33;;
7001;SDS011;3541;53.230;10.518;2022-11-20T01:01:28;8.27;;;5.70;;
7001;SDS011;3541;53.230;10.518;2022-11-20T01:03:55;10.87;;;6.10;;
7001;SDS011;3541;53.230;10.518;2022-11-20T01:06:24;9.20;;;6.20;;
7001;SDS011;3541;53.230;10.518;2022-11-20T01:08:52;7.40;;;5.73;;
7001;SDS011;3541;53.230;10.518;2022-11-20T01:11:21;9.20;;;5.80;;
7001;SDS011;3541;53.230;10.518;2022-11-20T01:13:50;8.53;;;6.00;;
7001;SDS011;3541;53.230;10.518;2022-11-20T01:16:19;8.67;;;5.90;;
7001;SDS011;3541;53.230;10.518;2022-11-20T01:18:49;9.77;;;6.00;;
7001;SDS011;3541;53.230;10.518;2022-11-20T01:21:19;8.30;;;6.17;;
7001;SDS011;3541;53.230;10.518;2022-11-20T01:23:47;10.00;;;5.57;;
7001;SDS011;3541;53.230;10.518;2022-11-20T01:26:15;7.57;;;5.60;;
7001;SDS011;3541;53.230;10.518;2022-11-20T01:28:44;9.10;;;6.00;;
7001;SDS011;3541;53.230;10.518;2022-11-20T01:31:12;7.63;;;5.80;;
7001;SDS011;3541;53.230;10.518;2022-11-20T01:33:40;8.03;;;6.30;;
7001;SDS011;3541;53.230;10.518;2022-11-20T01:36:09;7.60;;;5.90;;
7001;SDS011;3541;53.230;10.518;2022-11-20T01:38:36;6.40;;;5.50;;
7001;SDS011;3541;53.230;10.518;2022-11-20T01:41:03;7.73;;;5.73;;
7001;SDS011;3541;53.230;10.518;2022-11-20T01:43:30;7.47;;;5.40;;
7001;SDS011;3541;53.230;10.518;2022-11-20T01:45:58;8.57;;;6.00;;
7001;SDS011;3541;53.230;10.518;2022-11-20T01:48:28;9.23;;;6.00;;
7001;SDS011;3541;53.230;10.518;2022-11-20T01:50:59;7.43;;;5.87;;
7001;SDS011;3541;53.230;10.518;2022-11-20T01:53:30;8.10;;;5.97;;
7001;SDS011;3541;53.230;10.518;2022-11-20T01:56:01;8.43;;;6.43;;
7001;SDS011;3541;53.230;10.518;2022-11-20T01:58:32;7.90;;;5.83;;
7001;SDS011;3541;53.230;10.518;2022-11-20T02:01:02;7.60;;;5.63;;
7001;SDS011;3541;53.230;10.518;2022-11-20T02:03:29;9.70;;;5.93;;
7001;SDS011;3541;53.230;10.518;2022-11-20T02:05:57;7.67;;;6.07;;
7001;SDS011;3541;53.230;10.518;2022-11-20T02:08:30;7.83;;;6.30;;
7001;SDS011;3541;53.230;10.518;2022-11-20T02:10:58;7.23;;;6.23;;
7001;SDS011;3541;53.230;10.518;2022-11-20T02:13:24;7.40;;;6.03;;
7001;SDS011;3541;53.230;10.518;2022-11-20T02:16:10;8.03;;;5.90;;
7001;SDS011;3541;53.230;10.518;2022-11-20T02:18:38;9.37;;;6.20;;
7001;SDS011;3541;53.230;10.518;2022-11-20T02:21:07;8.00;;;5.83;;
7001;SDS011;3541;53.230;10.518;2022-11-20T02:26:26;8.77;;;5.77;;
7001;SDS011;3541;53.230;10.518;2022-11-20T02:28:54;7.43;;;5.77;;
7001;SDS011;3541;53.230;10.518;2022-11-20T02:31:21;10.07;;;6.03;;
7001;SDS011;3541;53.230;10.518;2022-11-20T02:33:53;8.13;;;5.67;;
7001;SDS011;3541;53.230;10.518;2022-11-20T02:36:21;9.87;;;6.43;;
7001;SDS011;3541;53.230;10.518;2022-11-20T02:38:49;6.23;;;5.47;;
7001;SDS011;3541;53.230;10.518;2022-11-20T02:41:17;8.00;;;5.63;;
7001;SDS011;3541;53.230;10.518;2022-11-20T02:43:45;8.63;;;5.90;;
7001;SDS011;3541;53.230;10.518;2022-11-20T02:46:12;10.63;;;6.87;;
7001;SDS011;3541;53.230;10.518;2022-11-20T02:48:39;9.23;;;6.30;;
7001;SDS011;3541;53.230;10.518;2022-11-20T02:51:06;7.73;;;5.63;;
7001;SDS011;3541;53.230;10.518;2022-11-20T02:53:32;6.57;;;5.80;;
7001;SDS011;3541;53.230;10.518;2022-11-20T02:55:59;10.87;;;6.13;;
7001;SDS011;3541;53.230;10.518;2022-11-20T02:58:27;8.30;;;5.90;;
7001;SDS011;3541;53.230;10.518;2022-11-20T03:00:53;7.87;;;6.60;;
7001;SDS011;3541;53.230;10.518;2022-11-20T03:03:20;9.00;;;5.90;;
7001;SDS011;3541;53.230;10.518;2022-11-20T03:05:47;7.73;;;5.90;;
7001;SDS011;3541;53.230;10.518;2022-11-20T03:08:13;7.17;;;5.60;;
7001;SDS011;3541;53.230;10.518;2022-11-20T03:10:40;7.23;;;5.87;;
7001;SDS011;3541;53.230;10.518;2022-11-20T03:13:06;9.53;;;6.07;;
7001;SDS011;3541;53.230;10.518;2022-11-20T03:15:35;9.80;;;5.80;;
7001;SDS011;3541;53.230;10.518;2022-11-20T03:18:02;9.50;;;6.37;;
7001;SDS011;3541;53.230;10.518;2022-11-20T03:20:28;8.17;;;6.10;;
7001;SDS011;3541;53.230;10.518;2022-11-20T03:22:55;9.37;;;6.00;;
7001;SDS011;3541;53.230;10.518;2022-11-20T03:25:22;7.73;;;5.77;;
7001;SDS011;3541;53.230;10.518;2022-11-20T03:27:48;8.43;;;5.93;;
7001;SDS011;3541;53.230;10.518;2022-11-20T03:30:15;7.77;;;5.80;;
7001;SDS011;3541;53.230;10.518;2022-11-20T03:32:43;7.13;;;6.20;;
7001;SDS011;3541;53.230;10.518;2022-11-20T03:35:09;9.10;;;5.73;;
7001;SDS011;3541;53.230;10.518;2022-11-20T03:37:36;9.00;;;5.83;;
7001;SDS011;3541;53.230;10.518;2022-11-20T03:40:03;10.37;;;5.90;;
7001;SDS011;3541;53.230;10.518;2022-11-20T03:42:30;7.30;;;5.53;;
7001;SDS011;3541;53.230;10.518;2022-11-20T03:45:12;7.20;;;5.27;;
7001;SDS011;3541;53.230;10.518;2022-11-20T03:47:39;7.33;;;5.50;;
7001;SDS011;3541;53.230;10.518;2022-11-20T03:50:08;7.33;;;5.70;;
7001;SDS011;3541;53.230;10.518;2022-11-20T03:52:37;9.03;;;5.47;;
7001;SDS011;3541;53.230;10.518;2022-11-20T03:55:04;7.63;;;5.67;;
7001;SDS011;3541;53.230;10.518;2022-11-20T03:57:31;7.30;;;5.57;;
7001;SDS011;3541;53.230;10.518;2022-11-20T03:59:57;7.20;;;5.53;;
7001;SDS011;3541;53.230;10.518;2022-11-20T04:02:24;6.87;;;5.30;;
7001;SDS011;3541;53.230;10.518;2022-11-20T04:04:51;7.93;;;5.87;;
7001;SDS011;3541;53.230;10.518;2022-11-20T04:07:19;5.67;;;4.73;;
7001;SDS011;3541;53.230;10.518;2022-11-20T04:09:46;6.27;;;5.23;;
7001;SDS011;3541;53.230;10.518;2022-11-20T04:12:13;7.97;;;5.60;;
7001;SDS011;3541;53.230;10.518;2022-11-20T04:14:39;7.83;;;5.80;;
7001;SDS011;3541;53.230;10.518;2022-11-20T04:17:06;6.77;;;5.53;;
7001;SDS011;3541;53.230;10.518;2022-11-20T04:19:32;7.17;;;5.27;;
7001;SDS011;3541;53.230;10.518;2022-11-20T04:21:59;7.87;;;5.40;;
7001;SDS011;3541;53.230;10.518;2022-11-20T04:24:27;8.87;;;5.57;;
7001;SDS011;3541;53.230;10.518;2022-11-20T04:26:53;7.90;;;4.83;;
7001;SDS011;3541;53.230;10.518;2022-11-20T04:29:20;7.97;;;5.03;;
7001;SDS011;3541;53.230;10.518;2022-11-20T04:31:47;8.63;;;5.40;;
7001;SDS011;3541;53.230;10.518;2022-11-20T04:34:13;7.40;;;5.37;;
7001;SDS011;3541;53.230;10.518;2022-11-20T04:36:40;5.73;;;4.83;;
7001;SDS011;3541;53.230;10.518;2022-11-20T04:39:11;6.33;;;4.93;;
7001;SDS011;3541;53.230;10.518;2022-11-20T04:41:40;6.97;;;4.87;;
7001;SDS011;3541;53.230;10.518;2022-11-20T04:44:07;7.40;;;5.23;;
7001;SDS011;3541;53.230;10.518;2022-11-20T04:46:35;6.13;;;5.10;;
7001;SDS011;3541;53.230;10.518;2022-11-20T04:49:03;5.57;;;4.67;;
7001;SDS011;3541;53.230;10.518;2022-11-20T04:51:30;6.57;;;5.10;;
7001;SDS011;3541;53.230;10.518;2022-11-20T04:53:57;6.83;;;5.20;;
7001;SDS011;3541;53.230;10.518;2022-11-20T04:56:24;6.73;;;4.40;;
7001;SDS011;3541;53.230;10.518;2022-11-20T04:58:52;6.53;;;4.43;;
7001;SDS011;3541;53.230;10.518;2022-11-20T05:01:19;6.53;;;4.97;;
7001;SDS011;3541;53.230;10.518;2022-11-20T05:03:47;7.17;;;5.00;;
7001;SDS011;3541;53.230;10.518;2022-11-20T05:06:16;9.07;;;4.63;;
7001;SDS011;3541;53.230;10.518;2022-11-20T05:08:43;6.03;;;4.73;;
7001;SDS011;3541;53.230;10.518;2022-11-20T05:11:11;7.00;;;5.00;;
7001;SDS011;3541;53.230;10.518;2022-11-20T05:13:39;6.10;;;4.67;;
7001;SDS011;3541;53.230;10.518;2022-11-20T05:16:09;7.40;;;5.27;;
7001;SDS011;3541;53.230;10.518;2022-11-20T05:18:37;8.67;;;5.33;;
7001;SDS011;3541;53.230;10.518;2022-11-20T05:21:05;7.83;;;4.93;;
7001;SDS011;3541;53.230;10.518;2022-11-20T05:23:32;7.87;;;5.70;;
7001;SDS011;3541;53.230;10.518;2022-11-20T05:25:59;6.63;;;5.07;;
7001;SDS011;3541;53.230;10.518;2022-11-20T05:28:26;8.50;;;6.20;;
7001;SDS011;3541;53.230;10.518;2022-11-20T05:30:54;5.50;;;4.73;;
7001;SDS011;3541;53.230;10.518;2022-11-20T05:33:22;7.83;;;5.73;;
7001;SDS011;3541;53.230;10.518;2022-11-20T05:35:48;6.63;;;4.97;;
7001;SDS011;3541;53.230;10.518;2022-11-20T05:38:15;6.30;;;5.33;;
7001;SDS011;3541;53.230;10.518;2022-11-20T05:40:42;7.47;;;5.20;;
7001;SDS011;3541;53.230;10.518;2022-11-20T05:43:08;8.37;;;6.03;;
7001;SDS011;3541;53.230;10.518;2022-11-20T05:45:35;7.67;;;5.83;;
7001;SDS011;3541;53.230;10.518;2022-11-20T05:48:02;9.60;;;5.73;;
7001;SDS011;3541;53.230;10.518;2022-11-20T05:50:30;6.43;;;5.50;;
7001;SDS011;3541;53.230;10.518;2022-11-20T05:52:57;7.77;;;5.40;;
7001;SDS011;3541;53.230;10.518;2022-11-20T05:55:24;7.63;;;6.03;;
7001;SDS011;3541;53.230;10.518;2022-11-20T05:57:51;9.43;;;6.27;;
7001;SDS011;3541;53.230;10.518;2022-11-20T06:00:18;8.13;;;5.97;;
7001;SDS011;3541;53.230;10.518;2022-11-20T06:02:45;10.83;;;6.50;;
7001;SDS011;3541;53.230;10.518;2022-11-20T06:05:11;9.07;;;6.43;;
7001;SDS011;3541;53.230;10.518;2022-11-20T06:07:39;9.23;;;6.60;;
7001;SDS011;3541;53.230;10.518;2022-11-20T06:10:06;9.50;;;6.53;;
7001;SDS011;3541;53.230;10.518;2022-11-20T06:12:33;9.70;;;6.83;;
7001;SDS011;3541;53.230;10.518;2022-11-20T06:14:59;8.40;;;6.40;;
7001;SDS011;3541;53.230;10.518;2022-11-20T06:17:26;9.97;;;7.10;;
7001;SDS011;3541;53.230;10.518;2022-11-20T06:19:53;10.33;;;7.23;;
7001;SDS011;3541;53.230;10.518;2022-11-20T06:22:19;10.03;;;6.97;;
7001;SDS011;3541;53.230;10.518;2022-11-20T06:24:47;8.47;;;6.80;;
7001;SDS011;3541;53.230;10.518;2022-11-20T06:27:14;10.93;;;7.43;;
7001;SDS011;3541;53.230;10.518;2022-11-20T06:29:41;8.60;;;6.70;;
7001;SDS011;3541;53.230;10.518;2022-11-20T06:32:08;10.30;;;7.40;;
7001;SDS011;3541;53.230;10.518;2022-11-20T06:34:34;11.17;;;9.20;;
7001;SDS011;3541;53.230;10.518;2022-11-20T06:37:01;10.07;;;7.47;;
7001;SDS011;3541;53.230;10.518;2022-11-20T06:39:27;11.40;;;7.47;;
7001;SDS011;3541;53.230;10.518;2022-11-20T06:41:55;11.30;;;8.23;;
7001;SDS011;3541;53.230;10.518;2022-11-20T06:44:22;12.67;;;8.23;;
7001;SDS011;3541;53.230;10.518;2022-11-20T06:46:49;11.80;;;8.63;;
7001;SDS011;3541;53.230;10.518;2022-11-20T06:49:16;11.80;;;8.53;;
7001;SDS011;3541;53.230;10.518;2022-11-20T06:51:42;10.30;;;8.13;;
7001;SDS011;3541;53.230;10.518;2022-11-20T06:54:09;12.33;;;8.93;;
7001;SDS011;3541;53.230;10.518;2022-11-20T06:56:35;11.67;;;8.83;;
7001;SDS011;3541;53.230;10.518;2022-11-20T06:59:05;13.90;;;8.40;;
7001;SDS011;3541;53.230;10.518;2022-11-20T07:01:32;12.20;;;8.97;;
7001;SDS011;3541;53.230;10.518;2022-11-20T07:03:58;13.73;;;9.53;;
7001;SDS011;3541;53.230;10.518;2022-11-20T07:06:25;13.07;;;9.20;;
7001;SDS011;3541;53.230;10.518;2022-11-20T07:08:52;11.97;;;8.83;;
7001;SDS011;3541;53.230;10.518;2022-11-20T07:11:18;13.00;;;9.20;;
7001;SDS011;3541;53.230;10.518;2022-11-20T07:13:45;12.83;;;8.80;;
7001;SDS011;3541;53.230;10.518;2022-11-20T07:16:13;13.13;;;9.47;;
7001;SDS011;3541;53.230;10.518;2022-11-20T07:18:39;12.37;;;8.60;;
7001;SDS011;3541;53.230;10.518;2022-11-20T07:21:06;11.90;;;8.80;;
7001;SDS011;3541;53.230;10.518;2022-11-20T07:23:35;13.23;;;9.27;;
7001;SDS011;3541;53.230;10.518;2022-11-20T07:26:02;13.40;;;8.80;;
7001;SDS011;3541;53.230;10.518;2022-11-20T07:28:29;11.50;;;8.27;;
7001;SDS011;3541;53.230;10.518;2022-11-20T07:30:56;14.47;;;9.33;;
7001;SDS011;3541;53.230;10.518;2022-11-20T07:33:24;12.83;;;8.43;;
7001;SDS011;3541;53.230;10.518;2022-11-20T07:35:51;11.83;;;8.23;;
7001;SDS011;3541;53.230;10.518;2022-11-20T07:38:17;13.67;;;9.10;;
7001;SDS011;3541;53.230;10.518;2022-11-20T07:40:44;12.00;;;9.03;;
7001;SDS011;3541;53.230;10.518;2022-11-20T07:43:11;13.07;;;9.50;;
7001;SDS011;3541;53.230;10.518;2022-11-20T07:45:37;12.40;;;8.93;;
7001;SDS011;3541;53.230;10.518;2022-11-20T07:48:04;13.30;;;9.50;;
7001;SDS011;3541;53.230;10.518;2022-11-20T07:50:32;13.00;;;9.33;;
7001;SDS011;3541;53.230;10.518;2022-11-20T07:53:02;14.23;;;10.17;;
7001;SDS011;3541;53.230;10.518;2022-11-20T07:55:30;13.93;;;10.33;;
7001;SDS011;3541;53.230;10.518;2022-11-20T07:57:58;13.07;;;9.67;;
7001;SDS011;3541;53.230;10.518;2022-11-20T08:00:24;12.87;;;9.27;;
7001;SDS011;3541;53.230;10.518;2022-11-20T08:02:52;13.67;;;9.73;;
7001;SDS011;3541;53.230;10.518;2022-11-20T08:05:18;13.87;;;9.47;;
7001;SDS011;3541;53.230;10.518;2022-11-20T08:07:46;12.47;;;9.27;;
7001;SDS011;3541;53.230;10.518;2022-11-20T08:10:13;13.93;;;10.20;;
7001;SDS011;3541;53.230;10.518;2022-11-20T08:12:44;12.90;;;9.77;;
7001;SDS011;3541;53.230;10.518;2022-11-20T08:15:29;13.53;;;8.67;;
7001;SDS011;3541;53.230;10.518;2022-11-20T08:18:00;13.80;;;9.67;;
7001;SDS011;3541;53.230;10.518;2022-11-20T08:20:28;15.20;;;9.80;;
7001;SDS011;3541;53.230;10.518;2022-11-20T08:22:58;14.40;;;10.23;;
7001;SDS011;3541;53.230;10.518;2022-11-20T08:25:26;15.57;;;10.33;;
7001;SDS011;3541;53.230;10.518;2022-11-20T08:27:54;14.43;;;10.00;;
7001;SDS011;3541;53.230;10.518;2022-11-20T08:30:22;13.37;;;8.97;;
7001;SDS011;3541;53.230;10.518;2022-11-20T08:32:50;11.27;;;8.37;;
7001;SDS011;3541;53.230;10.518;2022-11-20T08:35:16;13.50;;;9.00;;
7001;SDS011;3541;53.230;10.518;2022-11-20T08:37:45;13.57;;;9.40;;
7001;SDS011;3541;53.230;10.518;2022-11-20T08:40:14;11.67;;;8.87;;
7001;SDS011;3541;53.230;10.518;2022-11-20T08:42:45;13.83;;;9.10;;
7001;SDS011;3541;53.230;10.518;2022-11-20T08:45:13;12.87;;;8.93;;
7001;SDS011;3541;53.230;10.518;2022-11-20T08:47:39;13.23;;;9.23;;
7001;SDS011;3541;53.230;10.518;2022-11-20T08:50:07;14.30;;;9.20;;
7001;SDS011;3541;53.230;10.518;2022-11-20T08:52:34;12.03;;;8.87;;
7001;SDS011;3541;53.230;10.518;2022-11-20T08:55:00;11.63;;;8.43;;
7001;SDS011;3541;53.230;10.518;2022-11-20T08:57:28;15.40;;;9.27;;
7001;SDS011;3541;53.230;10.518;2022-11-20T08:59:57;12.63;;;8.43;;
7001;SDS011;3541;53.230;10.518;2022-11-20T09:02:24;12.83;;;8.60;;
7001;SDS011;3541;53.230;10.518;2022-11-20T09:04:50;12.80;;;8.27;;
7001;SDS011;3541;53.230;10.518;2022-11-20T09:07:18;13.00;;;8.77;;
7001;SDS011;3541;53.230;10.518;2022-11-20T09:09:44;11.33;;;8.27;;
7001;SDS011;3541;53.230;10.518;2022-11-20T09:12:11;11.87;;;9.03;;
7001;SDS011;3541;53.230;10.518;2022-11-20T09:14:39;11.80;;;8.60;;
7001;SDS011;3541;53.230;10.518;2022-11-20T09:17:06;13.50;;;8.90;;
7001;SDS011;3541;53.230;10.518;2022-11-20T09:19:33;12.37;;;8.40;;
7001;SDS011;3541;53.230;10.518;2022-11-20T09:22:00;11.60;;;8.57;;
7001;SDS011;3541;53.230;10.518;2022-11-20T09:24:26;11.70;;;8.43;;
7001;SDS011;3541;53.230;10.518;2022-11-20T09:26:53;11.53;;;8.33;;
7001;SDS011;3541;53.230;10.518;2022-11-20T09:29:20;10.90;;;7.90;;
7001;SDS011;3541;53.230;10.518;2022-11-20T09:31:48;13.57;;;8.63;;
7001;SDS011;3541;53.230;10.518;2022-11-20T09:34:14;12.77;;;8.53;;
7001;SDS011;3541;53.230;10.518;2022-11-20T09:36:42;13.03;;;9.57;;
7001;SDS011;3541;53.230;10.518;2022-11-20T09:39:08;11.00;;;8.00;;
7001;SDS011;3541;53.230;10.518;2022-11-20T09:41:45;10.87;;;8.10;;
7001;SDS011;3541;53.230;10.518;2022-11-20T09:44:31;9.47;;;6.93;;
7001;SDS011;3541;53.230;10.518;2022-11-20T09:47:11;11.00;;;8.27;;
7001;SDS011;3541;53.230;10.518;2022-11-20T09:49:49;11.40;;;7.73;;
7001;SDS011;3541;53.230;10.518;2022-11-20T09:52:26;10.30;;;7.50;;
7001;SDS011;3541;53.230;10.518;2022-11-20T09:54:58;10.00;;;8.30;;
7001;SDS011;3541;53.230;10.518;2022-11-20T09:57:29;11.63;;;8.60;;
7001;SDS011;3541;53.230;10.518;2022-11-20T10:00:00;11.37;;;8.60;;
7001;SDS011;3541;53.230;10.518;2022-11-20T10:02:35;12.10;;;8.23;;
7001;SDS011;3541;53.230;10.518;2022-11-20T10:05:09;13.67;;;8.20;;
7001;SDS011;3541;53.230;10.518;2022-11-20T10:07:39;10.17;;;7.67;;
7001;SDS011;3541;53.230;10.518;2022-11-20T10:10:13;13.10;;;9.70;;
7001;SDS011;3541;53.230;10.518;2022-11-20T10:12:48;9.63;;;6.97;;
7001;SDS011;3541;53.230;10.518;2022-11-20T10:15:28;10.80;;;7.80;;
7001;SDS011;3541;53.230;10.518;2022-11-20T10:18:13;11.17;;;8.57;;
7001;SDS011;3541;53.230;10.518;2022-11-20T10:20:49;10.03;;;7.57;;
7001;SDS011;3541;53.230;10.518;2022-11-20T10:23:29;9.00;;;7.27;;
7001;SDS011;3541;53.230;10.518;2022-11-20T10:26:16;8.10;;;6.60;;
7001;SDS011;3541;53.230;10.518;2022-11-20T10:28:51;8.40;;;6.30;;
7001;SDS011;3541;53.230;10.518;2022-11-20T10:31:31;10.60;;;6.17;;
7001;SDS011;3541;53.230;10.518;2022-11-20T10:34:02;8.50;;;6.70;;
7001;SDS011;3541;53.230;10.518;2022-11-20T10:36:33;11.53;;;8.60;;
7001;SDS011;3541;53.230;10.518;2022-11-20T10:39:06;8.37;;;6.10;;
7001;SDS011;3541;53.230;10.518;2022-11-20T10:41:49;6.80;;;5.77;;
7001;SDS011;3541;53.230;10.518;2022-11-20T10:44:19;11.07;;;7.40;;
7001;SDS011;3541;53.230;10.518;2022-11-20T10:47:01;8.67;;;6.73;;
7001;SDS011;3541;53.230;10.518;2022-11-20T10:49:31;13.10;;;9.73;;
7001;SDS011;3541;53.230;10.518;2022-11-20T10:52:02;11.80;;;7.37;;
7001;SDS011;3541;53.230;10.518;2022-11-20T10:54:36;12.93;;;7.87;;
7001;SDS011;3541;53.230;10.518;2022-11-20T10:57:13;12.17;;;7.67;;
7001;SDS011;3541;53.230;10.518;2022-11-20T11:00:00;10.03;;;6.87;;
7001;SDS011;3541;53.230;10.518;2022-11-20T11:02:32;6.80;;;5.27;;
7001;SDS011;3541;53.230;10.518;2022-11-20T11:05:11;8.33;;;5.80;;
7001;SDS011;3541;53.230;10.518;2022-11-20T11:07:44;7.83;;;5.20;;
7001;SDS011;3541;53.230;10.518;2022-11-20T11:10:18;7.77;;;5.67;;
7001;SDS011;3541;53.230;10.518;2022-11-20T11:12:48;6.70;;;5.40;;
7001;SDS011;3541;53.230;10.518;2022-11-20T11:15:25;5.63;;;4.70;;
7001;SDS011;3541;53.230;10.518;2022-11-20T11:17:54;10.73;;;5.10;;
7001;SDS011;3541;53.230;10.518;2022-11-20T11:20:24;16.83;;;9.33;;
7001;SDS011;3541;53.230;10.518;2022-11-20T11:22:52;17.07;;;9.00;;
7001;SDS011;3541;53.230;10.518;2022-11-20T11:25:25;40.10;;;18.37;;
7001;SDS011;3541;53.230;10.518;2022-11-20T11:27:55;10.73;;;7.23;;
7001;SDS011;3541;53.230;10.518;2022-11-20T11:30:24;7.17;;;5.13;;
7001;SDS011;3541;53.230;10.518;2022-11-20T11:33:02;5.70;;;5.03;;
7001;SDS011;3541;53.230;10.518;2022-11-20T11:35:31;5.87;;;4.80;;
7001;SDS011;3541;53.230;10.518;2022-11-20T11:38:02;6.10;;;5.00;;
7001;SDS011;3541;53.230;10.518;2022-11-20T11:40:31;6.93;;;5.27;;
7001;SDS011;3541;53.230;10.518;2022-11-20T11:42:59;6.53;;;5.10;;
7001;SDS011;3541;53.230;10.518;2022-11-20T11:45:30;9.07;;;5.87;;
7001;SDS011;3541;53.230;10.518;2022-11-20T11:47:56;6.40;;;5.47;;
7001;SDS011;3541;53.230;10.518;2022-11-20T11:50:26;9.43;;;6.03;;
7001;SDS011;3541;53.230;10.518;2022-11-20T11:52:58;7.27;;;5.53;;
7001;SDS011;3541;53.230;10.518;2022-11-20T11:55:35;5.63;;;4.30;;
7001;SDS011;3541;53.230;10.518;2022-11-20T11:58:09;9.53;;;6.57;;
7001;SDS011;3541;53.230;10.518;2022-11-20T12:00:41;8.60;;;5.73;;
7001;SDS011;3541;53.230;10.518;2022-11-20T12:03:17;9.13;;;5.63;;
7001;SDS011;3541;53.230;10.518;2022-11-20T12:05:48;6.07;;;5.00;;
7001;SDS011;3541;53.230;10.518;2022-11-20T12:08:23;5.17;;;4.40;;
7001;SDS011;3541;53.230;10.518;2022-11-20T12:10:53;5.10;;;4.17;;
7001;SDS011;3541;53.230;10.518;2022-11-20T12:13:26;4.37;;;3.83;;
7001;SDS011;3541;53.230;10.518;2022-11-20T12:16:03;9.97;;;5.27;;
7001;SDS011;3541;53.230;10.518;2022-11-20T12:18:30;4.07;;;3.67;;
7001;SDS011;3541;53.230;10.518;2022-11-20T12:21:02;5.00;;;4.20;;
7001;SDS011;3541;53.230;10.518;2022-11-20T12:23:38;5.97;;;4.37;;
7001;SDS011;3541;53.230;10.518;2022-11-20T12:26:13;4.27;;;3.43;;
7001;SDS011;3541;53.230;10.518;2022-11-20T12:28:50;5.93;;;4.30;;
7001;SDS011;3541;53.230;10.518;2022-11-20T12:31:30;7.57;;;4.70;;
7001;SDS011;3541;53.230;10.518;2022-11-20T12:34:27;6.67;;;5.40;;
7001;SDS011;3541;53.230;10.518;2022-11-20T12:37:08;4.87;;;4.33;;
7001;SDS011;3541;53.230;10.518;2022-11-20T12:39:43;5.70;;;4.40;;
7001;SDS011;3541;53.230;10.518;2022-11-20T12:42:21;5.73;;;4.97;;
7001;SDS011;3541;53.230;10.518;2022-11-20T12:45:21;7.80;;;6.10;;
7001;SDS011;3541;53.230;10.518;2022-11-20T12:48:11;6.47;;;5.10;;
7001;SDS011;3541;53.230;10.518;2022-11-20T12:50:58;5.07;;;4.57;;
7001;SDS011;3541;53.230;10.518;2022-11-20T12:53:39;8.00;;;4.33;;
7001;SDS011;3541;53.230;10.518;2022-11-20T12:56:17;6.13;;;4.33;;
7001;SDS011;3541;53.230;10.518;2022-11-20T12:58:58;6.17;;;4.87;;
7001;SDS011;3541;53.230;10.518;2022-11-20T13:01:37;6.00;;;4.93;;
7001;SDS011;3541;53.230;10.518;2022-11-20T13:04:16;7.43;;;5.30;;
7001;SDS011;3541;53.230;10.518;2022-11-20T13:06:56;5.10;;;4.27;;
7001;SDS011;3541;53.230;10.518;2022-11-20T13:09:24;6.40;;;4.47;;
7001;SDS011;3541;53.230;10.518;2022-11-20T13:11:56;4.77;;;4.27;;
7001;SDS011;3541;53.230;10.518;2022-11-20T13:14:31;5.70;;;4.40;;
7001;SDS011;3541;53.230;10.518;2022-11-20T13:17:04;5.17;;;4.60;;
7001;SDS011;3541;53.230;10.518;2022-11-20T13:19:35;5.27;;;4.47;;
7001;SDS011;3541;53.230;10.518;2022-11-20T13:22:02;5.50;;;4.57;;
7001;SDS011;3541;53.230;10.518;2022-11-20T13:24:30;8.87;;;6.93;;
7001;SDS011;3541;53.230;10.518;2022-11-20T13:27:16;16.30;;;10.77;;
7001;SDS011;3541;53.230;10.518;2022-11-20T13:29:46;11.37;;;9.60;;
7001;SDS011;3541;53.230;10.518;2022-11-20T13:32:25;6.57;;;5.90;;
7001;SDS011;3541;53.230;10.518;2022-11-20T13:34:57;9.53;;;7.63;;
7001;SDS011;3541;53.230;10.518;2022-11-20T13:37:27;9.97;;;7.93;;
7001;SDS011;3541;53.230;10.518;2022-11-20T13:40:04;7.43;;;6.53;;
7001;SDS011;3541;53.230;10.518;2022-11-20T13:42:43;8.17;;;7.20;;
7001;SDS011;3541;53.230;10.518;2022-11-20T13:45:25;4.83;;;4.43;;
7001;SDS011;3541;53.230;10.518;2022-11-20T13:47:53;4.13;;;3.53;;
7001;SDS011;3541;53.230;10.518;2022-11-20T13:50:21;7.43;;;5.57;;
7001;SDS011;3541;53.230;10.518;2022-11-20T13:53:05;4.30;;;3.90;;
7001;SDS011;3541;53.230;10.518;2022-11-20T13:55:40;5.37;;;4.20;;
7001;SDS011;3541;53.230;10.518;2022-11-20T13:58:24;5.20;;;4.23;;
7001;SDS011;3541;53.230;10.518;2022-11-20T14:01:08;5.63;;;4.60;;
7001;SDS011;3541;53.230;10.518;2022-11-20T14:03:36;6.83;;;6.13;;
7001;SDS011;3541;53.230;10.518;2022-11-20T14:06:05;6.93;;;5.47;;
7001;SDS011;3541;53.230;10.518;2022-11-20T14:08:40;4.40;;;4.00;;
7001;SDS011;3541;53.230;10.518;2022-11-20T14:11:13;5.03;;;4.07;;
7001;SDS011;3541;53.230;10.518;2022-11-20T14:13:52;3.80;;;3.40;;
7001;SDS011;3541;53.230;10.518;2022-11-20T14:16:21;4.17;;;3.77;;
7001;SDS011;3541;53.230;10.518;2022-11-20T14:18:47;4.23;;;3.83;;
7001;SDS011;3541;53.230;10.518;2022-11-20T14:21:20;40.27;;;16.30;;
7001;SDS011;3541;53.230;10.518;2022-11-20T14:23:49;15.13;;;8.50;;
7001;SDS011;3541;53.230;10.518;2022-11-20T14:26:19;6.83;;;4.90;;
7001;SDS011;3541;53.230;10.518;2022-11-20T14:28:47;5.97;;;4.57;;
7001;SDS011;3541;53.230;10.518;2022-11-20T14:31:18;4.63;;;3.97;;
7001;SDS011;3541;53.230;10.518;2022-11-20T14:33:50;8.73;;;7.40;;
7001;SDS011;3541;53.230;10.518;2022-11-20T14:36:18;17.13;;;12.20;;
7001;SDS011;3541;53.230;10.518;2022-11-20T14:38:47;14.00;;;10.40;;
7001;SDS011;3541;53.230;10.518;2022-11-20T14:41:17;7.17;;;5.40;;
7001;SDS011;3541;53.230;10.518;2022-11-20T14:43:45;8.10;;;5.53;;
7001;SDS011;3541;53.230;10.518;2022-11-20T14:46:13;12.17;;;10.00;;
7001;SDS011;3541;53.230;10.518;2022-11-20T14:48:43;5.90;;;5.07;;
7001;SDS011;3541;53.230;10.518;2022-11-20T14:51:22;7.80;;;5.97;;
7001;SDS011;3541;53.230;10.518;2022-11-20T14:53:52;8.93;;;6.20;;
7001;SDS011;3541;53.230;10.518;2022-11-20T14:56:21;10.83;;;7.33;;
7001;SDS011;3541;53.230;10.518;2022-11-20T14:58:55;10.93;;;6.57;;
7001;SDS011;3541;53.230;10.518;2022-11-20T15:01:24;6.80;;;4.90;;
7001;SDS011;3541;53.230;10.518;2022-11-20T15:03:58;29.47;;;18.97;;
7001;SDS011;3541;53.230;10.518;2022-11-20T15:06:26;19.10;;;13.40;;
7001;SDS011;3541;53.230;10.518;2022-11-20T15:08:54;17.87;;;12.80;;
7001;SDS011;3541;53.230;10.518;2022-11-20T15:11:23;17.37;;;12.50;;
7001;SDS011;3541;53.230;10.518;2022-11-20T15:13:55;14.90;;;11.80;;
7001;SDS011;3541;53.230;10.518;2022-11-20T15:16:22;13.63;;;10.40;;